VIE weather

Vienna International Airport
Vienna, Vienna, Austria

Public forecast

Using degrees Celsius for public forecast. Weather courtesy of forecast.io.

Current aviation weather report (METAR) for Vienna International Airport

Retrieved 2020/01/23 10:20 UTC (16 minutes ago):

LOWW 231020Z VRB01KT 9999 FEW015 04/M01 Q1036 NOSIG

Aviation forecast (TAF) for Vienna International Airport

Retrieved 2020/01/23 09:21 UTC (1 hour ago):

TAF LOWW 230815Z 2309/2415 11005KT 8000 NSC TX04/2313Z TNM02/2407Z FM231300 14009KT CAVOK BECMG 2317/2319 13017KT FM240600 16013KT 9999 FEW007 BKN009 BECMG 2408/2410 FEW007 BKN013 BECMG 2410/2412 17006KT CAVOK